CW8593 Gava ES current weather conditions

sailwx.info

Wind from 322

Air temperature 23.3° C
Dewpoint 20.1° C

Last reported at 2014-Aug-01 06:30 UTC.
Time now 2014-Aug-01 07:50 UTC

Location: N 41°18' E 001°60'.
View on Google Maps.

See reports from other nearby stations

  
Tides and Currents Weather Stations Pressure Air Temp Water Temp Dewpoint Dewpoint Depression Visibility Wind Speed Wind Dir Waves Ship Positions
date/time (UTC)wind fromknots sea level pressurealtimeterstation pressurevisibilityair tempwater tempwave heightnotes
2014-Aug-01 06:30 322 23.3
2014-Aug-01 06:00 323 23.3
2014-Aug-01 05:30 323 22.8
2014-Aug-01 05:10 323 22.8
2014-Aug-01 05:00 322 22.8
2014-Aug-01 04:10 323 22.8
2014-Aug-01 03:40 322 22.8
2014-Aug-01 03:00 323 0 gusting 2 22.2
2014-Aug-01 02:40 323 0 gusting 1 22.2
2014-Aug-01 02:30 322 21.7
2014-Aug-01 02:10 323 22.2
2014-Aug-01 01:40 322 21.7
2014-Aug-01 01:30 323 21.7
2014-Aug-01 01:10 323 0 gusting 2 21.7
2014-Aug-01 01:00 322 1 gusting 2 21.7
2014-Aug-01 00:10 323 22.2
2014-Jul-31 23:40 322 0 gusting 2 22.2
2014-Jul-31 23:30 323 22.2
2014-Jul-31 23:10 323 22.2
2014-Jul-31 22:01 323 0 gusting 2 23.3
2014-Jul-31 21:30 327 23.9
2014-Jul-31 21:00 015 23.9
2014-Jul-31 20:40 015 0 gusting 2 24.4
2014-Jul-31 20:30 015 24.4
2014-Jul-31 20:00 101 0 gusting 2 25.6
2014-Jul-31 19:10 159 0 gusting 4 26.1
2014-Jul-31 18:40 231 1 gusting 7 26.1
2014-Jul-31 18:30 234 1 gusting 8 26.7
2014-Jul-31 18:10 187 4 gusting 8 26.7
2014-Jul-31 17:40 243 4 gusting 11 26.7
2014-Jul-31 17:00 163 6 gusting 13 27.2
2014-Jul-31 16:40 223 8 gusting 14 27.2
2014-Jul-31 16:30 177 5 gusting 13 27.2
2014-Jul-31 15:10 200 8 gusting 17 27.2
2014-Jul-31 14:40 188 10 gusting 18 27.2
2014-Jul-31 14:10 180 7 gusting 15 27.2
2014-Jul-31 13:10 177 5 gusting 12 27.8
2014-Jul-31 13:00 198 5 gusting 17 27.2
2014-Jul-31 12:40 190 7 gusting 17 26.7
2014-Jul-31 12:30 164 10 gusting 18 26.7
2014-Jul-31 12:00 183 10 gusting 15 26.7
2014-Jul-31 11:40 142 5 gusting 12 26.1
2014-Jul-31 10:40 136 4 gusting 10 26.1
2014-Jul-31 09:30 188 4 gusting 10 26.1
2014-Jul-31 09:10 234 4 gusting 7 26.1
2014-Jul-31 09:00 150 4 gusting 6 26.7
2014-Jul-31 08:10 092 2 gusting 5 26.1
2014-Jul-31 08:00 132 2 gusting 6 26.1
2014-Jul-31 07:40 175 0 gusting 2 25.6
2014-Jul-31 06:40 213 25.0
2014-Jul-31 04:40 212 20.6
2014-Jul-31 04:00 212 20.6
2014-Jul-31 03:30 213 0 gusting 2 21.1
2014-Jul-31 03:10 212 0 gusting 1 21.1
2014-Jul-31 03:01 211 21.1
2014-Jul-31 02:40 211 20.6
2014-Jul-31 02:30 212 20.6
2014-Jul-31 01:00 212 20.6
2014-Jul-31 00:40 212 20.6
2014-Jul-31 00:00 213 20.6
2014-Jul-30 23:40 212 21.1
2014-Jul-30 23:30 212 21.1
2014-Jul-30 23:10 211 21.7
2014-Jul-30 23:00 212 21.7
2014-Jul-30 22:30 212 21.7
2014-Jul-30 22:10 213 21.7
2014-Jul-30 21:40 212 22.8
2014-Jul-30 21:00 212 22.8
2014-Jul-30 20:40 212 22.8
2014-Jul-30 20:10 211 23.9
2014-Jul-30 20:00 212 23.9
2014-Jul-30 19:40 212 24.4
2014-Jul-30 19:10 188 1 gusting 6 24.4
2014-Jul-30 18:40 194 4 gusting 10 25.0
2014-Jul-30 18:10 195 7 gusting 12 25.6
2014-Jul-30 18:00 199 5 gusting 12 25.6
2014-Jul-30 17:40 195 7 gusting 12 26.1
2014-Jul-30 17:10 176 6 gusting 14 26.1
2014-Jul-30 16:40 182 3 gusting 12 26.7
2014-Jul-30 16:00 215 5 gusting 13 26.7
2014-Jul-30 15:40 175 6 gusting 12 27.2
2014-Jul-30 15:30 192 5 gusting 15 26.7
2014-Jul-30 15:10 188 7 gusting 14 26.7
2014-Jul-30 14:40 230 6 gusting 14 26.7
2014-Jul-30 14:30 215 5 gusting 17 26.7
2014-Jul-30 13:30 183 4 gusting 19 26.7
2014-Jul-30 13:10 213 6 gusting 15 26.1
2014-Jul-30 12:40 179 6 gusting 13 26.1
2014-Jul-30 12:30 129 6 gusting 13 26.1
2014-Jul-30 12:00 161 6 gusting 13 26.1
2014-Jul-30 11:30 168 5 gusting 13 26.1
2014-Jul-30 11:10 120 6 gusting 11 25.6
2014-Jul-30 10:40 138 2 gusting 10 26.1
2014-Jul-30 10:30 153 2 gusting 10 26.7
2014-Jul-30 09:40 171 2 gusting 6 26.1
2014-Jul-30 09:30 140 1 gusting 6 26.1
2014-Jul-30 09:10 164 1 gusting 5 26.1
2014-Jul-30 08:30 028 4 gusting 10 24.4
2014-Jul-30 07:40 346 2 gusting 8 23.3
2014-Jul-30 07:30 343 5 gusting 10 23.3
2014-Jul-30 07:10 329 2 gusting 8 23.3
2014-Jul-30 07:00 336 4 gusting 8 22.8